sensor_id;sensor_type;location;lat;lon;timestamp;pressure;altitude;pressure_sealevel;temperature;humidity
70833;BME280;58452;59.418;17.962;2023-04-04T00:00:25;102847.53;;;-2.68;63.18
70833;BME280;58452;59.418;17.962;2023-04-04T00:02:51;102845.84;;;-2.69;63.48
70833;BME280;58452;59.418;17.962;2023-04-04T00:05:16;102847.53;;;-2.68;63.31
70833;BME280;58452;59.418;17.962;2023-04-04T00:07:45;102833.19;;;-2.68;63.84
70833;BME280;58452;59.418;17.962;2023-04-04T00:10:11;102834.88;;;-2.68;63.44
70833;BME280;58452;59.418;17.962;2023-04-04T00:12:37;102841.63;;;-2.75;64.02
70833;BME280;58452;59.418;17.962;2023-04-04T00:15:03;102835.78;;;-2.84;63.58
70833;BME280;58452;59.418;17.962;2023-04-04T00:17:28;102833.25;;;-2.80;63.63
70833;BME280;58452;59.418;17.962;2023-04-04T00:19:54;102832.41;;;-2.83;64.24
70833;BME280;58452;59.418;17.962;2023-04-04T00:22:21;102821.47;;;-2.79;63.89
70833;BME280;58452;59.418;17.962;2023-04-04T00:24:46;102814.72;;;-2.79;64.33
70833;BME280;58452;59.418;17.962;2023-04-04T00:27:13;102822.28;;;-2.82;64.68
70833;BME280;58452;59.418;17.962;2023-04-04T00:29:38;102816.38;;;-2.82;64.34
70833;BME280;58452;59.418;17.962;2023-04-04T00:32:04;102813.03;;;-2.86;64.33
70833;BME280;58452;59.418;17.962;2023-04-04T00:34:30;102803.81;;;-2.91;63.96
70833;BME280;58452;59.418;17.962;2023-04-04T00:36:55;102809.72;;;-2.94;64.38
70833;BME280;58452;59.418;17.962;2023-04-04T00:39:21;102811.38;;;-2.88;64.04
70833;BME280;58452;59.418;17.962;2023-04-04T00:41:48;102795.38;;;-2.87;64.00
70833;BME280;58452;59.418;17.962;2023-04-04T00:44:14;102801.28;;;-2.87;63.90
70833;BME280;58452;59.418;17.962;2023-04-04T00:46:40;102805.53;;;-3.03;64.35
70833;BME280;58452;59.418;17.962;2023-04-04T00:49:05;102805.63;;;-3.39;64.89
70833;BME280;58452;59.418;17.962;2023-04-04T00:51:31;102795.50;;;-3.33;65.12
70833;BME280;58452;59.418;17.962;2023-04-04T00:53:57;102801.38;;;-3.20;64.83
70833;BME280;58452;59.418;17.962;2023-04-04T00:56:23;102793.78;;;-3.17;65.24
70833;BME280;58452;59.418;17.962;2023-04-04T00:58:49;102791.28;;;-3.16;65.12
70833;BME280;58452;59.418;17.962;2023-04-04T01:01:15;102790.47;;;-3.27;65.20
70833;BME280;58452;59.418;17.962;2023-04-04T01:03:41;102785.41;;;-3.43;65.43
70833;BME280;58452;59.418;17.962;2023-04-04T01:06:07;102782.06;;;-3.44;65.27
70833;BME280;58452;59.418;17.962;2023-04-04T01:08:35;102780.38;;;-3.36;65.46
70833;BME280;58452;59.418;17.962;2023-04-04T01:11:02;102776.97;;;-3.33;65.48
70833;BME280;58452;59.418;17.962;2023-04-04T01:13:28;102776.16;;;-3.31;65.54
70833;BME280;58452;59.418;17.962;2023-04-04T01:15:54;102780.34;;;-3.30;65.38
70833;BME280;58452;59.418;17.962;2023-04-04T01:18:21;102773.63;;;-3.35;65.65
70833;BME280;58452;59.418;17.962;2023-04-04T01:20:59;102777.00;;;-3.35;65.27
70833;BME280;58452;59.418;17.962;2023-04-04T01:23:34;102770.28;;;-3.42;65.39
70833;BME280;58452;59.418;17.962;2023-04-04T01:26:04;102776.16;;;-3.52;66.34
70833;BME280;58452;59.418;17.962;2023-04-04T01:28:30;102778.72;;;-3.49;66.28
70833;BME280;58452;59.418;17.962;2023-04-04T01:30:58;102771.97;;;-3.50;66.41
70833;BME280;58452;59.418;17.962;2023-04-04T01:33:27;102770.31;;;-3.45;66.28
70833;BME280;58452;59.418;17.962;2023-04-04T01:41:32;102777.88;;;-3.47;66.13
70833;BME280;58452;59.418;17.962;2023-04-04T01:43:59;102777.84;;;-3.43;66.04
70833;BME280;58452;59.418;17.962;2023-04-04T01:46:25;102777.88;;;-3.50;66.22
70833;BME280;58452;59.418;17.962;2023-04-04T01:48:51;102778.75;;;-3.67;66.47
70833;BME280;58452;59.418;17.962;2023-04-04T01:51:16;102773.69;;;-3.64;66.56
70833;BME280;58452;59.418;17.962;2023-04-04T01:53:42;102777.03;;;-3.77;67.30
70833;BME280;58452;59.418;17.962;2023-04-04T01:56:07;102772.00;;;-3.68;67.19
70833;BME280;58452;59.418;17.962;2023-04-04T01:58:33;102766.94;;;-3.67;67.25
70833;BME280;58452;59.418;17.962;2023-04-04T02:00:59;102770.31;;;-3.62;66.83
70833;BME280;58452;59.418;17.962;2023-04-04T02:03:24;102765.28;;;-3.60;66.61
70833;BME280;58452;59.418;17.962;2023-04-04T02:05:50;102761.91;;;-3.67;66.53
70833;BME280;58452;59.418;17.962;2023-04-04T02:08:15;102763.56;;;-3.70;66.45
70833;BME280;58452;59.418;17.962;2023-04-04T02:10:40;102753.50;;;-3.64;66.67
70833;BME280;58452;59.418;17.962;2023-04-04T02:13:06;102755.19;;;-3.72;66.09
70833;BME280;58452;59.418;17.962;2023-04-04T02:15:32;102750.97;;;-3.69;66.36
70833;BME280;58452;59.418;17.962;2023-04-04T02:17:58;102760.22;;;-3.69;66.49
70833;BME280;58452;59.418;17.962;2023-04-04T02:20:24;102753.50;;;-3.70;66.35
70833;BME280;58452;59.418;17.962;2023-04-04T02:22:54;102751.00;;;-3.75;66.15
70833;BME280;58452;59.418;17.962;2023-04-04T02:25:21;102758.56;;;-3.82;66.38
70833;BME280;58452;59.418;17.962;2023-04-04T02:27:46;102757.72;;;-3.83;66.30
70833;BME280;58452;59.418;17.962;2023-04-04T02:30:12;102752.69;;;-3.89;66.17
70833;BME280;58452;59.418;17.962;2023-04-04T02:32:38;102741.75;;;-3.89;65.97
70833;BME280;58452;59.418;17.962;2023-04-04T02:35:04;102740.91;;;-3.93;66.77
70833;BME280;58452;59.418;17.962;2023-04-04T02:37:30;102745.97;;;-4.05;66.93
70833;BME280;58452;59.418;17.962;2023-04-04T02:39:56;102751.84;;;-4.08;67.28
70833;BME280;58452;59.418;17.962;2023-04-04T02:42:21;102742.59;;;-4.01;66.90
70833;BME280;58452;59.418;17.962;2023-04-04T02:44:46;102746.78;;;-3.99;67.03
70833;BME280;58452;59.418;17.962;2023-04-04T02:47:12;102744.25;;;-4.14;67.43
70833;BME280;58452;59.418;17.962;2023-04-04T02:49:37;102738.31;;;-4.61;68.40
70833;BME280;58452;59.418;17.962;2023-04-04T02:52:03;102736.66;;;-4.61;69.33
70833;BME280;58452;59.418;17.962;2023-04-04T02:54:29;102741.72;;;-4.38;68.56
70833;BME280;58452;59.418;17.962;2023-04-04T02:56:54;102738.38;;;-4.34;69.14
70833;BME280;58452;59.418;17.962;2023-04-04T02:59:20;102744.25;;;-4.29;68.38
70833;BME280;58452;59.418;17.962;2023-04-04T03:01:46;102741.75;;;-4.23;68.21
70833;BME280;58452;59.418;17.962;2023-04-04T03:04:11;102738.38;;;-4.22;68.32
70833;BME280;58452;59.418;17.962;2023-04-04T03:06:38;102737.53;;;-4.28;67.92
70833;BME280;58452;59.418;17.962;2023-04-04T03:09:05;102738.38;;;-4.31;68.11
70833;BME280;58452;59.418;17.962;2023-04-04T03:11:31;102740.06;;;-4.30;67.67
70833;BME280;58452;59.418;17.962;2023-04-04T03:13:56;102741.75;;;-4.27;68.14
70833;BME280;58452;59.418;17.962;2023-04-04T03:16:22;102739.22;;;-4.32;68.04
70833;BME280;58452;59.418;17.962;2023-04-04T03:18:48;102734.16;;;-4.44;68.27
70833;BME280;58452;59.418;17.962;2023-04-04T03:21:13;102733.31;;;-4.55;68.04
70833;BME280;58452;59.418;17.962;2023-04-04T03:23:39;102724.09;;;-4.49;68.44
70833;BME280;58452;59.418;17.962;2023-04-04T03:26:05;102729.16;;;-4.33;67.89
70833;BME280;58452;59.418;17.962;2023-04-04T03:28:30;102731.66;;;-4.29;67.47
70833;BME280;58452;59.418;17.962;2023-04-04T03:30:56;102727.44;;;-4.25;67.33
70833;BME280;58452;59.418;17.962;2023-04-04T03:33:21;102722.41;;;-4.25;67.36
70833;BME280;58452;59.418;17.962;2023-04-04T03:35:47;102719.91;;;-4.30;67.67
70833;BME280;58452;59.418;17.962;2023-04-04T03:38:13;102721.56;;;-4.29;67.92
70833;BME280;58452;59.418;17.962;2023-04-04T03:40:38;102716.56;;;-4.26;67.77
70833;BME280;58452;59.418;17.962;2023-04-04T03:43:07;102716.53;;;-4.29;68.09
70833;BME280;58452;59.418;17.962;2023-04-04T03:45:33;102712.34;;;-4.34;68.24
70833;BME280;58452;59.418;17.962;2023-04-04T03:48:00;102709.78;;;-4.51;68.60
70833;BME280;58452;59.418;17.962;2023-04-04T03:50:25;102714.84;;;-4.39;68.22
70833;BME280;58452;59.418;17.962;2023-04-04T03:52:51;102704.75;;;-4.36;68.08
70833;BME280;58452;59.418;17.962;2023-04-04T03:55:16;102720.75;;;-4.37;68.12
70833;BME280;58452;59.418;17.962;2023-04-04T03:57:42;102712.34;;;-4.31;68.08
70833;BME280;58452;59.418;17.962;2023-04-04T04:00:08;102711.50;;;-4.26;68.09
70833;BME280;58452;59.418;17.962;2023-04-04T04:02:33;102705.59;;;-4.32;68.58
70833;BME280;58452;59.418;17.962;2023-04-04T04:04:59;102708.97;;;-4.33;68.67
70833;BME280;58452;59.418;17.962;2023-04-04T04:07:24;102704.78;;;-4.24;68.70
70833;BME280;58452;59.418;17.962;2023-04-04T04:09:50;102697.22;;;-4.15;68.38
70833;BME280;58452;59.418;17.962;2023-04-04T04:12:15;102697.22;;;-4.30;69.49
70833;BME280;58452;59.418;17.962;2023-04-04T04:14:41;102689.66;;;-4.27;69.72
70833;BME280;58452;59.418;17.962;2023-04-04T04:17:06;102696.38;;;-4.20;69.42
70833;BME280;58452;59.418;17.962;2023-04-04T04:19:32;102687.97;;;-4.10;69.45
70833;BME280;58452;59.418;17.962;2023-04-04T04:21:57;102693.84;;;-4.03;69.10
70833;BME280;58452;59.418;17.962;2023-04-04T04:24:23;102695.53;;;-4.02;69.54
70833;BME280;58452;59.418;17.962;2023-04-04T04:26:48;102691.31;;;-3.96;70.02
70833;BME280;58452;59.418;17.962;2023-04-04T04:29:14;102687.09;;;-3.90;70.06
70833;BME280;58452;59.418;17.962;2023-04-04T04:31:40;102684.56;;;-3.84;70.00
70833;BME280;58452;59.418;17.962;2023-04-04T04:34:06;102681.19;;;-3.77;69.92
70833;BME280;58452;59.418;17.962;2023-04-04T04:36:35;102681.19;;;-3.68;69.86
70833;BME280;58452;59.418;17.962;2023-04-04T04:39:01;102680.34;;;-3.64;70.38
70833;BME280;58452;59.418;17.962;2023-04-04T04:41:26;102668.56;;;-3.61;70.12
70833;BME280;58452;59.418;17.962;2023-04-04T04:43:56;102672.72;;;-3.55;70.21
70833;BME280;58452;59.418;17.962;2023-04-04T04:46:22;102681.22;;;-3.74;70.58
70833;BME280;58452;59.418;17.962;2023-04-04T04:48:47;102673.56;;;-3.59;70.92
70833;BME280;58452;59.418;17.962;2023-04-04T04:51:13;102676.91;;;-3.47;70.89
70833;BME280;58452;59.418;17.962;2023-04-04T04:53:39;102679.41;;;-3.36;70.77
70833;BME280;58452;59.418;17.962;2023-04-04T04:56:05;102676.00;;;-3.33;70.71
70833;BME280;58452;59.418;17.962;2023-04-04T04:58:31;102681.16;;;-3.58;71.86
70833;BME280;58452;59.418;17.962;2023-04-04T05:00:57;102682.84;;;-3.64;72.05
70833;BME280;58452;59.418;17.962;2023-04-04T05:03:22;102679.53;;;-3.75;72.76
70833;BME280;58452;59.418;17.962;2023-04-04T05:05:48;102682.88;;;-3.73;73.11
70833;BME280;58452;59.418;17.962;2023-04-04T05:08:14;102683.69;;;-3.65;73.88
70833;BME280;58452;59.418;17.962;2023-04-04T05:10:40;102677.81;;;-3.66;73.76
70833;BME280;58452;59.418;17.962;2023-04-04T05:13:05;102668.53;;;-3.49;74.34
70833;BME280;58452;59.418;17.962;2023-04-04T05:15:31;102674.31;;;-3.28;73.76
70833;BME280;58452;59.418;17.962;2023-04-04T05:17:56;102672.59;;;-3.16;73.69
70833;BME280;58452;59.418;17.962;2023-04-04T05:20:22;102674.25;;;-3.15;74.01
70833;BME280;58452;59.418;17.962;2023-04-04T05:22:48;102666.56;;;-2.97;73.70
70833;BME280;58452;59.418;17.962;2023-04-04T05:25:13;102665.66;;;-2.80;73.45
70833;BME280;58452;59.418;17.962;2023-04-04T05:27:39;102664.75;;;-2.73;73.63
70833;BME280;58452;59.418;17.962;2023-04-04T05:30:05;102663.97;;;-2.81;73.83
70833;BME280;58452;59.418;17.962;2023-04-04T05:32:32;102665.66;;;-2.80;74.24
70833;BME280;58452;59.418;17.962;2023-04-04T05:34:58;102665.53;;;-2.62;73.88
70833;BME280;58452;59.418;17.962;2023-04-04T05:37:23;102661.19;;;-2.43;73.54
70833;BME280;58452;59.418;17.962;2023-04-04T05:39:49;102663.63;;;-2.31;73.49
70833;BME280;58452;59.418;17.962;2023-04-04T05:42:14;102667.72;;;-2.17;72.96
70833;BME280;58452;59.418;17.962;2023-04-04T05:44:41;102656.66;;;-2.07;72.66
70833;BME280;58452;59.418;17.962;2023-04-04T05:47:06;102651.50;;;-1.98;72.49
70833;BME280;58452;59.418;17.962;2023-04-04T05:49:32;102651.41;;;-1.88;71.82
70833;BME280;58452;59.418;17.962;2023-04-04T05:51:57;102648.75;;;-1.78;72.04
70833;BME280;58452;59.418;17.962;2023-04-04T05:54:23;102652.91;;;-1.69;71.93
70833;BME280;58452;59.418;17.962;2023-04-04T05:56:48;102649.41;;;-1.61;71.57
70833;BME280;58452;59.418;17.962;2023-04-04T06:02:24;102649.19;;;-1.41;70.73
70833;BME280;58452;59.418;17.962;2023-04-04T06:04:49;102655.91;;;-1.37;70.62
70833;BME280;58452;59.418;17.962;2023-04-04T06:07:15;102650.78;;;-1.34;70.95
70833;BME280;58452;59.418;17.962;2023-04-04T06:09:41;102645.63;;;-1.28;70.74
70833;BME280;58452;59.418;17.962;2023-04-04T06:12:06;102643.84;;;-1.20;70.80
70833;BME280;58452;59.418;17.962;2023-04-04T06:14:34;102650.56;;;-1.16;70.32
70833;BME280;58452;59.418;17.962;2023-04-04T06:17:00;102651.28;;;-1.08;70.59
70833;BME280;58452;59.418;17.962;2023-04-04T06:19:26;102652.94;;;-1.05;70.65
70833;BME280;58452;59.418;17.962;2023-04-04T06:21:51;102649.50;;;-1.03;69.92
70833;BME280;58452;59.418;17.962;2023-04-04T06:24:17;102652.81;;;-0.96;70.65
70833;BME280;58452;59.418;17.962;2023-04-04T06:26:42;102656.13;;;-0.91;69.88
70833;BME280;58452;59.418;17.962;2023-04-04T06:29:09;102659.38;;;-0.83;69.75
70833;BME280;58452;59.418;17.962;2023-04-04T06:31:34;102653.41;;;-0.77;69.97
70833;BME280;58452;59.418;17.962;2023-04-04T06:33:59;102652.84;;;-0.99;70.55
70833;BME280;58452;59.418;17.962;2023-04-04T06:36:25;102653.41;;;-0.80;70.27
70833;BME280;58452;59.418;17.962;2023-04-04T06:38:51;102652.50;;;-0.75;70.14
70833;BME280;58452;59.418;17.962;2023-04-04T06:41:16;102656.63;;;-0.69;69.47
70833;BME280;58452;59.418;17.962;2023-04-04T06:43:43;102658.31;;;-0.68;69.56
70833;BME280;58452;59.418;17.962;2023-04-04T06:46:11;102659.22;;;-0.71;70.09
70833;BME280;58452;59.418;17.962;2023-04-04T06:48:36;102664.34;;;-0.74;70.38
70833;BME280;58452;59.418;17.962;2023-04-04T06:51:05;102660.81;;;-0.65;69.52
70833;BME280;58452;59.418;17.962;2023-04-04T06:53:31;102665.13;;;-0.70;69.02
70833;BME280;58452;59.418;17.962;2023-04-04T06:55:57;102666.66;;;-0.60;69.97
70833;BME280;58452;59.418;17.962;2023-04-04T06:58:23;102658.16;;;-0.56;69.31
70833;BME280;58452;59.418;17.962;2023-04-04T07:00:49;102666.56;;;-0.54;68.71
70833;BME280;58452;59.418;17.962;2023-04-04T07:03:14;102657.34;;;-0.60;69.90
70833;BME280;58452;59.418;17.962;2023-04-04T07:05:40;102661.47;;;-0.54;69.37
70833;BME280;58452;59.418;17.962;2023-04-04T07:08:05;102656.28;;;-0.45;68.97
70833;BME280;58452;59.418;17.962;2023-04-04T07:10:31;102658.09;;;-0.53;68.56
70833;BME280;58452;59.418;17.962;2023-04-04T07:12:56;102659.78;;;-0.52;68.60
70833;BME280;58452;59.418;17.962;2023-04-04T07:15:22;102658.72;;;-0.39;68.57
70833;BME280;58452;59.418;17.962;2023-04-04T07:17:47;102654.53;;;-0.43;69.38
70833;BME280;58452;59.418;17.962;2023-04-04T07:20:13;102654.41;;;-0.35;68.29
70833;BME280;58452;59.418;17.962;2023-04-04T07:22:39;102655.13;;;-0.27;68.38
70833;BME280;58452;59.418;17.962;2023-04-04T07:25:05;102658.34;;;-0.16;68.18
70833;BME280;58452;59.418;17.962;2023-04-04T07:27:31;102647.19;;;-0.08;67.22
70833;BME280;58452;59.418;17.962;2023-04-04T07:29:57;102653.06;;;-0.06;67.66
70833;BME280;58452;59.418;17.962;2023-04-04T07:32:22;102653.19;;;-0.13;67.67
70833;BME280;58452;59.418;17.962;2023-04-04T07:34:48;102651.38;;;-0.05;67.66
70833;BME280;58452;59.418;17.962;2023-04-04T07:37:14;102655.34;;;0.10;67.55
70833;BME280;58452;59.418;17.962;2023-04-04T07:39:40;102654.50;;;0.09;66.55
70833;BME280;58452;59.418;17.962;2023-04-04T07:42:06;102658.34;;;-0.16;68.71
70833;BME280;58452;59.418;17.962;2023-04-04T07:44:32;102650.66;;;-0.12;67.71
70833;BME280;58452;59.418;17.962;2023-04-04T07:46:57;102652.44;;;-0.18;68.72
70833;BME280;58452;59.418;17.962;2023-04-04T07:49:22;102654.03;;;-0.13;68.15
70833;BME280;58452;59.418;17.962;2023-04-04T07:51:48;102659.53;;;-0.37;67.82
70833;BME280;58452;59.418;17.962;2023-04-04T07:54:14;102656.13;;;-0.36;68.20
70833;BME280;58452;59.418;17.962;2023-04-04T07:56:39;102654.81;;;-0.08;67.94
70833;BME280;58452;59.418;17.962;2023-04-04T07:59:05;102657.41;;;-0.12;68.75
70833;BME280;58452;59.418;17.962;2023-04-04T08:01:31;102653.66;;;0.09;68.27
70833;BME280;58452;59.418;17.962;2023-04-04T08:03:56;102650.66;;;-0.12;68.25
70833;BME280;58452;59.418;17.962;2023-04-04T08:06:22;102660.19;;;-0.26;69.00
70833;BME280;58452;59.418;17.962;2023-04-04T08:08:47;102657.13;;;-0.46;69.37
70833;BME280;58452;59.418;17.962;2023-04-04T08:11:14;102667.81;;;-0.26;69.90
70833;BME280;58452;59.418;17.962;2023-04-04T08:13:40;102671.03;;;-0.18;69.58
70833;BME280;58452;59.418;17.962;2023-04-04T08:16:05;102660.38;;;0.11;69.01
70833;BME280;58452;59.418;17.962;2023-04-04T08:18:31;102667.06;;;0.17;67.60
70833;BME280;58452;59.418;17.962;2023-04-04T08:20:57;102667.41;;;0.43;68.58
70833;BME280;58452;59.418;17.962;2023-04-04T08:23:23;102657.81;;;0.57;66.92
70833;BME280;58452;59.418;17.962;2023-04-04T08:25:48;102662.94;;;0.54;65.96
70833;BME280;58452;59.418;17.962;2023-04-04T08:28:14;102663.59;;;0.64;66.22
70833;BME280;58452;59.418;17.962;2023-04-04T08:30:40;102665.97;;;0.73;64.55
70833;BME280;58452;59.418;17.962;2023-04-04T08:33:05;102660.50;;;0.89;63.70
70833;BME280;58452;59.418;17.962;2023-04-04T08:35:31;102669.91;;;0.86;65.05
70833;BME280;58452;59.418;17.962;2023-04-04T08:37:56;102657.88;;;0.94;63.88
70833;BME280;58452;59.418;17.962;2023-04-04T08:40:22;102671.13;;;1.08;63.00
70833;BME280;58452;59.418;17.962;2023-04-04T08:42:49;102673.50;;;1.16;62.47
70833;BME280;58452;59.418;17.962;2023-04-04T08:45:16;102664.84;;;1.24;61.71
70833;BME280;58452;59.418;17.962;2023-04-04T08:47:43;102663.91;;;1.28;61.69
70833;BME280;58452;59.418;17.962;2023-04-04T08:50:11;102671.53;;;1.28;60.97
70833;BME280;58452;59.418;17.962;2023-04-04T08:52:36;102674.84;;;1.32;61.50
70833;BME280;58452;59.418;17.962;2023-04-04T08:55:05;102659.00;;;1.21;60.19
70833;BME280;58452;59.418;17.962;2023-04-04T08:57:31;102657.56;;;1.08;60.88
70833;BME280;58452;59.418;17.962;2023-04-04T08:59:57;102662.94;;;1.32;61.11
70833;BME280;58452;59.418;17.962;2023-04-04T09:02:29;102659.38;;;1.39;58.85
70833;BME280;58452;59.418;17.962;2023-04-04T09:04:59;102647.91;;;1.23;59.72
70833;BME280;58452;59.418;17.962;2023-04-04T09:07:27;102655.25;;;1.35;59.86
70833;BME280;58452;59.418;17.962;2023-04-04T09:09:53;102662.31;;;1.58;58.31
70833;BME280;58452;59.418;17.962;2023-04-04T09:12:20;102655.22;;;1.72;58.55
70833;BME280;58452;59.418;17.962;2023-04-04T09:14:47;102647.88;;;1.92;59.18
70833;BME280;58452;59.418;17.962;2023-04-04T09:17:14;102651.53;;;1.48;57.33
70833;BME280;58452;59.418;17.962;2023-04-04T09:19:40;102648.66;;;1.62;58.21
70833;BME280;58452;59.418;17.962;2023-04-04T09:22:06;102641.47;;;1.78;57.30
70833;BME280;58452;59.418;17.962;2023-04-04T09:24:39;102641.50;;;1.76;57.03
70833;BME280;58452;59.418;17.962;2023-04-04T09:27:09;102641.97;;;1.92;55.16
70833;BME280;58452;59.418;17.962;2023-04-04T09:29:40;102644.19;;;1.72;56.46
70833;BME280;58452;59.418;17.962;2023-04-04T09:32:13;102633.72;;;1.48;56.38
70833;BME280;58452;59.418;17.962;2023-04-04T09:34:40;102641.34;;;1.48;55.41
70833;BME280;58452;59.418;17.962;2023-04-04T09:37:05;102638.38;;;1.65;54.69
70833;BME280;58452;59.418;17.962;2023-04-04T09:39:32;102641.38;;;1.82;54.54
70833;BME280;58452;59.418;17.962;2023-04-04T09:41:59;102635.59;;;1.76;53.85
70833;BME280;58452;59.418;17.962;2023-04-04T09:44:25;102638.47;;;1.62;52.82
70833;BME280;58452;59.418;17.962;2023-04-04T09:47:06;102635.53;;;1.77;53.66
70833;BME280;58452;59.418;17.962;2023-04-04T09:49:48;102634.59;;;1.81;51.51
70833;BME280;58452;59.418;17.962;2023-04-04T09:52:17;102633.81;;;2.12;50.65
70833;BME280;58452;59.418;17.962;2023-04-04T09:54:44;102635.88;;;2.28;48.38
70833;BME280;58452;59.418;17.962;2023-04-04T09:57:09;102629.53;;;2.43;48.81
70833;BME280;58452;59.418;17.962;2023-04-04T09:59:35;102633.13;;;2.36;47.90
70833;BME280;58452;59.418;17.962;2023-04-04T10:02:01;102633.53;;;2.52;49.61
70833;BME280;58452;59.418;17.962;2023-04-04T10:04:30;102635.66;;;2.36;49.32
70833;BME280;58452;59.418;17.962;2023-04-04T10:06:58;102627.94;;;2.39;49.47
70833;BME280;58452;59.418;17.962;2023-04-04T10:09:25;102621.53;;;2.55;46.63
70833;BME280;58452;59.418;17.962;2023-04-04T10:12:06;102631.44;;;2.35;47.04
70833;BME280;58452;59.418;17.962;2023-04-04T10:14:36;102632.91;;;2.43;47.44
70833;BME280;58452;59.418;17.962;2023-04-04T10:17:06;102621.84;;;2.74;47.45
70833;BME280;58452;59.418;17.962;2023-04-04T10:19:37;102630.53;;;2.96;47.65
70833;BME280;58452;59.418;17.962;2023-04-04T10:22:04;102624.00;;;3.14;48.37
70833;BME280;58452;59.418;17.962;2023-04-04T10:24:30;102630.34;;;3.28;47.65
70833;BME280;58452;59.418;17.962;2023-04-04T10:26:56;102634.84;;;3.48;48.54
70833;BME280;58452;59.418;17.962;2023-04-04T10:29:22;102627.34;;;3.68;48.07
70833;BME280;58452;59.418;17.962;2023-04-04T10:31:55;102631.25;;;3.78;46.58
70833;BME280;58452;59.418;17.962;2023-04-04T10:34:37;102621.81;;;3.56;46.06
70833;BME280;58452;59.418;17.962;2023-04-04T10:37:08;102620.38;;;3.73;45.85
70833;BME280;58452;59.418;17.962;2023-04-04T10:42:24;102612.44;;;4.06;44.77
70833;BME280;58452;59.418;17.962;2023-04-04T10:44:50;102612.09;;;3.91;43.74
70833;BME280;58452;59.418;17.962;2023-04-04T10:47:17;102607.72;;;3.70;45.49
70833;BME280;58452;59.418;17.962;2023-04-04T10:49:44;102607.75;;;3.69;45.43
70833;BME280;58452;59.418;17.962;2023-04-04T10:52:13;102604.84;;;3.79;44.05
70833;BME280;58452;59.418;17.962;2023-04-04T10:54:42;102600.47;;;3.58;45.79
70833;BME280;58452;59.418;17.962;2023-04-04T10:57:09;102607.28;;;3.31;44.22
70833;BME280;58452;59.418;17.962;2023-04-04T11:02:53;102594.06;;;3.45;45.72
70833;BME280;58452;59.418;17.962;2023-04-04T11:07:59;102601.69;;;3.71;44.64
70833;BME280;58452;59.418;17.962;2023-04-04T11:10:30;102587.75;;;3.81;44.96
70833;BME280;58452;59.418;17.962;2023-04-04T11:12:57;102587.19;;;3.97;45.31
70833;BME280;58452;59.418;17.962;2023-04-04T11:16:00;102584.91;;;4.14;46.14
70833;BME280;58452;59.418;17.962;2023-04-04T11:21:00;102581.34;;;4.18;46.42
70833;BME280;58452;59.418;17.962;2023-04-04T11:23:25;102578.66;;;3.98;44.72
70833;BME280;58452;59.418;17.962;2023-04-04T11:25:53;102582.06;;;4.21;45.89
70833;BME280;58452;59.418;17.962;2023-04-04T11:41:53;102561.31;;;4.74;42.64
70833;BME280;58452;59.418;17.962;2023-04-04T11:44:20;102564.41;;;4.82;43.84
70833;BME280;58452;59.418;17.962;2023-04-04T11:49:28;102562.22;;;4.95;41.73
70833;BME280;58452;59.418;17.962;2023-04-04T11:51:55;102554.41;;;4.98;41.51
70833;BME280;58452;59.418;17.962;2023-04-04T11:54:21;102549.03;;;5.04;41.47
70833;BME280;58452;59.418;17.962;2023-04-04T11:56:47;102556.19;;;5.17;41.11
70833;BME280;58452;59.418;17.962;2023-04-04T11:59:20;102558.28;;;5.28;41.28
70833;BME280;58452;59.418;17.962;2023-04-04T12:01:46;102551.09;;;5.36;42.16
70833;BME280;58452;59.418;17.962;2023-04-04T12:04:19;102556.63;;;5.27;41.48
70833;BME280;58452;59.418;17.962;2023-04-04T12:06:49;102542.47;;;5.18;41.86
70833;BME280;58452;59.418;17.962;2023-04-04T12:09:18;102544.34;;;5.35;39.37
70833;BME280;58452;59.418;17.962;2023-04-04T12:11:48;102540.34;;;5.48;40.25
70833;BME280;58452;59.418;17.962;2023-04-04T12:14:24;102536.31;;;5.63;41.97
70833;BME280;58452;59.418;17.962;2023-04-04T12:16:54;102536.50;;;5.58;41.89
70833;BME280;58452;59.418;17.962;2023-04-04T12:19:22;102536.25;;;5.64;40.18
70833;BME280;58452;59.418;17.962;2023-04-04T12:21:48;102525.88;;;5.67;40.53
70833;BME280;58452;59.418;17.962;2023-04-04T12:24:14;102528.44;;;5.47;40.21
70833;BME280;58452;59.418;17.962;2023-04-04T12:26:41;102530.53;;;5.39;41.33
70833;BME280;58452;59.418;17.962;2023-04-04T12:29:08;102526.25;;;5.58;41.59
70833;BME280;58452;59.418;17.962;2023-04-04T12:31:37;102528.59;;;5.64;40.03
70833;BME280;58452;59.418;17.962;2023-04-04T12:34:03;102528.66;;;5.43;40.94
70833;BME280;58452;59.418;17.962;2023-04-04T12:36:29;102526.97;;;5.21;42.31
70833;BME280;58452;59.418;17.962;2023-04-04T12:39:04;102528.16;;;5.34;42.52
70833;BME280;58452;59.418;17.962;2023-04-04T12:41:32;102522.56;;;5.45;41.10
70833;BME280;58452;59.418;17.962;2023-04-04T12:44:05;102528.13;;;5.55;40.95
70833;BME280;58452;59.418;17.962;2023-04-04T12:46:37;102525.50;;;5.36;42.37
70833;BME280;58452;59.418;17.962;2023-04-04T12:49:09;102525.09;;;5.47;41.76
70833;BME280;58452;59.418;17.962;2023-04-04T12:51:37;102512.84;;;5.53;40.95
70833;BME280;58452;59.418;17.962;2023-04-04T12:54:06;102507.03;;;5.50;41.40
70833;BME280;58452;59.418;17.962;2023-04-04T12:56:33;102513.41;;;5.60;41.33
70833;BME280;58452;59.418;17.962;2023-04-04T12:59:00;102517.25;;;5.29;42.44
70833;BME280;58452;59.418;17.962;2023-04-04T13:01:30;102520.06;;;5.03;42.34
70833;BME280;58452;59.418;17.962;2023-04-04T13:04:00;102515.84;;;5.02;42.78
70833;BME280;58452;59.418;17.962;2023-04-04T13:06:27;102511.63;;;5.21;41.68
70833;BME280;58452;59.418;17.962;2023-04-04T13:08:54;102513.06;;;5.07;42.53
70833;BME280;58452;59.418;17.962;2023-04-04T13:11:19;102518.72;;;5.15;42.55
70833;BME280;58452;59.418;17.962;2023-04-04T13:13:46;102515.41;;;5.13;41.30
70833;BME280;58452;59.418;17.962;2023-04-04T13:16:12;102508.00;;;5.27;42.63